sensor_id;sensor_type;location;lat;lon;timestamp;temperature;humidity
5868;DHT22;2960;49.142;7.768;2023-11-19T00:00:49;10.70;91.30
5868;DHT22;2960;49.142;7.768;2023-11-19T00:03:16;10.80;91.80
5868;DHT22;2960;49.142;7.768;2023-11-19T00:05:44;10.80;91.50
5868;DHT22;2960;49.142;7.768;2023-11-19T00:08:12;10.70;91.50
5868;DHT22;2960;49.142;7.768;2023-11-19T00:10:39;10.70;91.60
5868;DHT22;2960;49.142;7.768;2023-11-19T00:13:07;10.80;91.60
5868;DHT22;2960;49.142;7.768;2023-11-19T00:15:35;10.80;91.60
5868;DHT22;2960;49.142;7.768;2023-11-19T00:18:03;10.80;91.60
5868;DHT22;2960;49.142;7.768;2023-11-19T00:20:31;10.90;91.60
5868;DHT22;2960;49.142;7.768;2023-11-19T00:22:59;10.90;91.60
5868;DHT22;2960;49.142;7.768;2023-11-19T00:25:28;10.90;91.60
5868;DHT22;2960;49.142;7.768;2023-11-19T00:27:55;10.90;91.60
5868;DHT22;2960;49.142;7.768;2023-11-19T00:30:24;10.90;91.60
5868;DHT22;2960;49.142;7.768;2023-11-19T00:32:51;10.90;91.70
5868;DHT22;2960;49.142;7.768;2023-11-19T00:35:18;10.90;91.70
5868;DHT22;2960;49.142;7.768;2023-11-19T00:37:45;11.00;91.80
5868;DHT22;2960;49.142;7.768;2023-11-19T00:40:13;10.90;91.70
5868;DHT22;2960;49.142;7.768;2023-11-19T00:42:41;11.00;91.80
5868;DHT22;2960;49.142;7.768;2023-11-19T00:45:09;11.00;91.90
5868;DHT22;2960;49.142;7.768;2023-11-19T00:47:39;11.00;91.90
5868;DHT22;2960;49.142;7.768;2023-11-19T00:50:07;11.00;91.90
5868;DHT22;2960;49.142;7.768;2023-11-19T00:52:35;11.00;91.90
5868;DHT22;2960;49.142;7.768;2023-11-19T00:55:03;11.00;91.90
5868;DHT22;2960;49.142;7.768;2023-11-19T00:57:32;11.00;91.90
5868;DHT22;2960;49.142;7.768;2023-11-19T01:00:02;11.10;92.30
5868;DHT22;2960;49.142;7.768;2023-11-19T01:02:34;11.10;92.00
5868;DHT22;2960;49.142;7.768;2023-11-19T01:05:03;11.10;92.00
5868;DHT22;2960;49.142;7.768;2023-11-19T01:07:31;11.10;92.00
5868;DHT22;2960;49.142;7.768;2023-11-19T01:09:59;11.10;92.00
5868;DHT22;2960;49.142;7.768;2023-11-19T01:12:26;11.10;92.00
5868;DHT22;2960;49.142;7.768;2023-11-19T01:14:53;11.10;92.10
5868;DHT22;2960;49.142;7.768;2023-11-19T01:17:23;11.10;92.10
5868;DHT22;2960;49.142;7.768;2023-11-19T01:19:51;11.20;92.10
5868;DHT22;2960;49.142;7.768;2023-11-19T01:22:19;11.20;92.20
5868;DHT22;2960;49.142;7.768;2023-11-19T01:24:46;11.20;92.20
5868;DHT22;2960;49.142;7.768;2023-11-19T01:27:13;11.20;92.20
5868;DHT22;2960;49.142;7.768;2023-11-19T01:29:41;11.20;92.60
5868;DHT22;2960;49.142;7.768;2023-11-19T01:32:08;11.20;92.30
5868;DHT22;2960;49.142;7.768;2023-11-19T01:34:38;11.20;92.40
5868;DHT22;2960;49.142;7.768;2023-11-19T01:37:08;11.20;92.40
5868;DHT22;2960;49.142;7.768;2023-11-19T01:39:38;11.20;92.40
5868;DHT22;2960;49.142;7.768;2023-11-19T01:42:06;11.20;92.40
5868;DHT22;2960;49.142;7.768;2023-11-19T01:44:33;11.20;92.50
5868;DHT22;2960;49.142;7.768;2023-11-19T01:47:00;11.30;92.50
5868;DHT22;2960;49.142;7.768;2023-11-19T01:49:30;11.30;92.50
5868;DHT22;2960;49.142;7.768;2023-11-19T01:51:58;11.30;92.50
5868;DHT22;2960;49.142;7.768;2023-11-19T01:54:26;11.30;92.60
5868;DHT22;2960;49.142;7.768;2023-11-19T01:56:57;11.30;92.60
5868;DHT22;2960;49.142;7.768;2023-11-19T01:59:24;11.30;92.70
5868;DHT22;2960;49.142;7.768;2023-11-19T02:01:53;11.30;92.70
5868;DHT22;2960;49.142;7.768;2023-11-19T02:04:22;11.30;92.80
5868;DHT22;2960;49.142;7.768;2023-11-19T02:06:51;11.30;92.90
5868;DHT22;2960;49.142;7.768;2023-11-19T02:09:21;11.30;92.90
5868;DHT22;2960;49.142;7.768;2023-11-19T02:11:48;11.30;93.00
5868;DHT22;2960;49.142;7.768;2023-11-19T02:14:18;11.30;93.20
5868;DHT22;2960;49.142;7.768;2023-11-19T02:16:46;11.30;93.30
5868;DHT22;2960;49.142;7.768;2023-11-19T02:19:13;11.30;93.30
5868;DHT22;2960;49.142;7.768;2023-11-19T02:21:40;11.30;93.40
5868;DHT22;2960;49.142;7.768;2023-11-19T02:24:11;11.30;93.50
5868;DHT22;2960;49.142;7.768;2023-11-19T02:26:42;11.30;93.50
5868;DHT22;2960;49.142;7.768;2023-11-19T02:29:14;11.30;93.70
5868;DHT22;2960;49.142;7.768;2023-11-19T02:31:41;11.30;93.80
5868;DHT22;2960;49.142;7.768;2023-11-19T02:34:10;11.40;93.90
5868;DHT22;2960;49.142;7.768;2023-11-19T02:36:38;11.40;94.00
5868;DHT22;2960;49.142;7.768;2023-11-19T02:39:07;11.40;94.10
5868;DHT22;2960;49.142;7.768;2023-11-19T02:41:39;11.40;94.10
5868;DHT22;2960;49.142;7.768;2023-11-19T02:44:06;11.40;94.30
5868;DHT22;2960;49.142;7.768;2023-11-19T02:46:35;11.40;94.30
5868;DHT22;2960;49.142;7.768;2023-11-19T02:49:02;11.40;94.40
5868;DHT22;2960;49.142;7.768;2023-11-19T02:51:29;11.40;94.50
5868;DHT22;2960;49.142;7.768;2023-11-19T02:53:56;11.40;94.60
5868;DHT22;2960;49.142;7.768;2023-11-19T02:56:24;11.40;94.70
5868;DHT22;2960;49.142;7.768;2023-11-19T02:58:52;11.40;94.80
5868;DHT22;2960;49.142;7.768;2023-11-19T03:01:23;11.40;94.90
5868;DHT22;2960;49.142;7.768;2023-11-19T03:03:56;11.50;95.00
5868;DHT22;2960;49.142;7.768;2023-11-19T03:06:24;11.40;95.00
5868;DHT22;2960;49.142;7.768;2023-11-19T03:08:53;11.40;94.90
5868;DHT22;2960;49.142;7.768;2023-11-19T03:11:21;11.50;95.10
5868;DHT22;2960;49.142;7.768;2023-11-19T03:13:50;11.50;95.10
5868;DHT22;2960;49.142;7.768;2023-11-19T03:16:17;11.50;95.10
5868;DHT22;2960;49.142;7.768;2023-11-19T03:18:46;11.50;95.20
5868;DHT22;2960;49.142;7.768;2023-11-19T03:21:14;11.50;95.50
5868;DHT22;2960;49.142;7.768;2023-11-19T03:23:42;11.60;95.30
5868;DHT22;2960;49.142;7.768;2023-11-19T03:26:10;11.50;95.40
5868;DHT22;2960;49.142;7.768;2023-11-19T03:28:38;11.50;95.40
5868;DHT22;2960;49.142;7.768;2023-11-19T03:31:06;11.60;95.50
5868;DHT22;2960;49.142;7.768;2023-11-19T03:33:34;11.60;95.60
5868;DHT22;2960;49.142;7.768;2023-11-19T03:36:01;11.60;95.60
5868;DHT22;2960;49.142;7.768;2023-11-19T03:38:29;11.60;95.70
5868;DHT22;2960;49.142;7.768;2023-11-19T03:40:56;11.60;95.80
5868;DHT22;2960;49.142;7.768;2023-11-19T03:43:24;11.60;95.90
5868;DHT22;2960;49.142;7.768;2023-11-19T03:45:51;11.60;95.90
5868;DHT22;2960;49.142;7.768;2023-11-19T03:48:19;11.70;96.10
5868;DHT22;2960;49.142;7.768;2023-11-19T03:50:49;11.70;96.10
5868;DHT22;2960;49.142;7.768;2023-11-19T03:53:16;11.70;96.30
5868;DHT22;2960;49.142;7.768;2023-11-19T03:55:45;11.70;96.40
5868;DHT22;2960;49.142;7.768;2023-11-19T03:58:14;11.70;96.60
5868;DHT22;2960;49.142;7.768;2023-11-19T04:00:41;11.70;96.60
5868;DHT22;2960;49.142;7.768;2023-11-19T04:03:08;11.70;97.00
5868;DHT22;2960;49.142;7.768;2023-11-19T04:05:35;11.70;96.70
5868;DHT22;2960;49.142;7.768;2023-11-19T04:08:03;11.70;96.70
5868;DHT22;2960;49.142;7.768;2023-11-19T04:10:31;11.80;96.90
5868;DHT22;2960;49.142;7.768;2023-11-19T04:13:02;11.80;96.90
5868;DHT22;2960;49.142;7.768;2023-11-19T04:15:29;11.80;97.00
5868;DHT22;2960;49.142;7.768;2023-11-19T04:17:56;11.80;97.00
5868;DHT22;2960;49.142;7.768;2023-11-19T04:20:26;11.80;97.30
5868;DHT22;2960;49.142;7.768;2023-11-19T04:22:54;11.80;97.40
5868;DHT22;2960;49.142;7.768;2023-11-19T04:25:22;11.80;97.30
5868;DHT22;2960;49.142;7.768;2023-11-19T04:27:51;11.90;97.40
5868;DHT22;2960;49.142;7.768;2023-11-19T04:30:20;11.90;97.50
5868;DHT22;2960;49.142;7.768;2023-11-19T04:32:47;11.90;97.50
5868;DHT22;2960;49.142;7.768;2023-11-19T04:35:15;11.90;97.50
5868;DHT22;2960;49.142;7.768;2023-11-19T04:37:42;11.90;97.50
5868;DHT22;2960;49.142;7.768;2023-11-19T04:40:10;11.90;97.50
5868;DHT22;2960;49.142;7.768;2023-11-19T04:42:38;12.00;97.60
5868;DHT22;2960;49.142;7.768;2023-11-19T04:45:07;12.00;97.70
5868;DHT22;2960;49.142;7.768;2023-11-19T04:47:37;12.00;97.70
5868;DHT22;2960;49.142;7.768;2023-11-19T04:50:05;12.00;97.80
5868;DHT22;2960;49.142;7.768;2023-11-19T04:52:37;12.00;97.80
5868;DHT22;2960;49.142;7.768;2023-11-19T04:55:06;12.00;97.90
5868;DHT22;2960;49.142;7.768;2023-11-19T04:57:37;12.00;97.90
5868;DHT22;2960;49.142;7.768;2023-11-19T05:00:05;12.00;98.00
5868;DHT22;2960;49.142;7.768;2023-11-19T05:02:33;12.10;98.10
5868;DHT22;2960;49.142;7.768;2023-11-19T05:05:02;12.10;98.30
5868;DHT22;2960;49.142;7.768;2023-11-19T05:07:30;12.10;98.20
5868;DHT22;2960;49.142;7.768;2023-11-19T05:09:57;12.10;98.20
5868;DHT22;2960;49.142;7.768;2023-11-19T05:12:24;12.10;98.20
5868;DHT22;2960;49.142;7.768;2023-11-19T05:14:51;12.20;98.30
5868;DHT22;2960;49.142;7.768;2023-11-19T05:17:19;12.20;98.50
5868;DHT22;2960;49.142;7.768;2023-11-19T05:19:46;12.20;98.60
5868;DHT22;2960;49.142;7.768;2023-11-19T05:22:15;12.20;98.70
5868;DHT22;2960;49.142;7.768;2023-11-19T05:24:42;12.20;98.90
5868;DHT22;2960;49.142;7.768;2023-11-19T05:27:09;12.20;98.70
5868;DHT22;2960;49.142;7.768;2023-11-19T05:29:39;12.30;98.70
5868;DHT22;2960;49.142;7.768;2023-11-19T05:32:06;12.30;98.70
5868;DHT22;2960;49.142;7.768;2023-11-19T05:34:34;12.30;98.80
5868;DHT22;2960;49.142;7.768;2023-11-19T05:37:01;12.30;98.80
5868;DHT22;2960;49.142;7.768;2023-11-19T05:39:29;12.30;98.90
5868;DHT22;2960;49.142;7.768;2023-11-19T05:41:56;12.30;98.80
5868;DHT22;2960;49.142;7.768;2023-11-19T05:44:23;12.40;99.00
5868;DHT22;2960;49.142;7.768;2023-11-19T05:46:51;12.40;99.10
5868;DHT22;2960;49.142;7.768;2023-11-19T05:49:18;12.40;99.20
5868;DHT22;2960;49.142;7.768;2023-11-19T05:51:45;12.40;99.30
5868;DHT22;2960;49.142;7.768;2023-11-19T05:54:12;12.40;99.40
5868;DHT22;2960;49.142;7.768;2023-11-19T05:56:41;12.40;99.40
5868;DHT22;2960;49.142;7.768;2023-11-19T05:59:09;12.50;99.50
5868;DHT22;2960;49.142;7.768;2023-11-19T06:01:41;12.50;99.60
5868;DHT22;2960;49.142;7.768;2023-11-19T06:04:08;12.50;99.60
5868;DHT22;2960;49.142;7.768;2023-11-19T06:06:35;12.50;99.60
5868;DHT22;2960;49.142;7.768;2023-11-19T06:09:02;12.50;99.70
5868;DHT22;2960;49.142;7.768;2023-11-19T06:11:32;12.50;99.90
5868;DHT22;2960;49.142;7.768;2023-11-19T06:14:03;12.50;99.70
5868;DHT22;2960;49.142;7.768;2023-11-19T06:16:31;12.60;99.70
5868;DHT22;2960;49.142;7.768;2023-11-19T06:18:58;12.60;99.70
5868;DHT22;2960;49.142;7.768;2023-11-19T06:21:28;12.60;99.70
5868;DHT22;2960;49.142;7.768;2023-11-19T06:23:55;12.60;99.70
5868;DHT22;2960;49.142;7.768;2023-11-19T06:26:22;12.60;99.70
5868;DHT22;2960;49.142;7.768;2023-11-19T06:28:51;12.60;99.70
5868;DHT22;2960;49.142;7.768;2023-11-19T06:31:19;12.60;99.90
5868;DHT22;2960;49.142;7.768;2023-11-19T06:33:46;12.70;99.90
5868;DHT22;2960;49.142;7.768;2023-11-19T06:36:14;12.70;99.90
5868;DHT22;2960;49.142;7.768;2023-11-19T06:38:42;12.70;99.90
5868;DHT22;2960;49.142;7.768;2023-11-19T06:41:10;12.70;99.80
5868;DHT22;2960;49.142;7.768;2023-11-19T06:43:37;12.70;99.90
5868;DHT22;2960;49.142;7.768;2023-11-19T06:46:05;12.70;99.80
5868;DHT22;2960;49.142;7.768;2023-11-19T06:48:33;12.80;99.90
5868;DHT22;2960;49.142;7.768;2023-11-19T06:51:01;12.70;99.90
5868;DHT22;2960;49.142;7.768;2023-11-19T06:53:31;12.80;99.90
5868;DHT22;2960;49.142;7.768;2023-11-19T06:55:58;12.80;99.90
5868;DHT22;2960;49.142;7.768;2023-11-19T06:58:26;12.80;99.90
5868;DHT22;2960;49.142;7.768;2023-11-19T07:00:53;12.80;99.90
5868;DHT22;2960;49.142;7.768;2023-11-19T07:03:20;12.80;99.90
5868;DHT22;2960;49.142;7.768;2023-11-19T07:05:51;12.80;99.90
5868;DHT22;2960;49.142;7.768;2023-11-19T07:08:18;12.80;99.90
5868;DHT22;2960;49.142;7.768;2023-11-19T07:10:45;12.80;99.90
5868;DHT22;2960;49.142;7.768;2023-11-19T07:13:13;12.90;99.90
5868;DHT22;2960;49.142;7.768;2023-11-19T07:15:40;12.90;99.90
5868;DHT22;2960;49.142;7.768;2023-11-19T07:18:08;12.90;99.90
5868;DHT22;2960;49.142;7.768;2023-11-19T07:20:37;12.90;99.90
5868;DHT22;2960;49.142;7.768;2023-11-19T07:23:06;12.90;99.90
5868;DHT22;2960;49.142;7.768;2023-11-19T07:25:34;12.90;99.90
5868;DHT22;2960;49.142;7.768;2023-11-19T07:28:02;12.90;99.90
5868;DHT22;2960;49.142;7.768;2023-11-19T07:30:30;13.00;99.90
5868;DHT22;2960;49.142;7.768;2023-11-19T07:32:57;13.00;99.90
5868;DHT22;2960;49.142;7.768;2023-11-19T07:35:24;13.00;99.90
5868;DHT22;2960;49.142;7.768;2023-11-19T07:37:51;13.00;99.90
5868;DHT22;2960;49.142;7.768;2023-11-19T07:40:20;13.10;99.90
5868;DHT22;2960;49.142;7.768;2023-11-19T07:42:47;13.10;99.90
5868;DHT22;2960;49.142;7.768;2023-11-19T07:45:14;13.10;99.90
5868;DHT22;2960;49.142;7.768;2023-11-19T07:47:42;13.10;99.90
5868;DHT22;2960;49.142;7.768;2023-11-19T07:50:10;13.10;99.90
5868;DHT22;2960;49.142;7.768;2023-11-19T07:52:39;13.10;99.90
5868;DHT22;2960;49.142;7.768;2023-11-19T07:55:07;13.10;99.90
5868;DHT22;2960;49.142;7.768;2023-11-19T07:57:36;13.20;99.90
5868;DHT22;2960;49.142;7.768;2023-11-19T08:00:03;13.20;99.90
5868;DHT22;2960;49.142;7.768;2023-11-19T08:02:32;13.20;99.90
5868;DHT22;2960;49.142;7.768;2023-11-19T08:04:59;13.20;99.90
5868;DHT22;2960;49.142;7.768;2023-11-19T08:07:26;13.30;99.90
5868;DHT22;2960;49.142;7.768;2023-11-19T08:09:53;13.30;99.90
5868;DHT22;2960;49.142;7.768;2023-11-19T08:12:20;13.30;99.90
5868;DHT22;2960;49.142;7.768;2023-11-19T08:14:49;13.30;99.90
5868;DHT22;2960;49.142;7.768;2023-11-19T08:17:18;13.30;99.90
5868;DHT22;2960;49.142;7.768;2023-11-19T08:19:45;13.40;99.90
5868;DHT22;2960;49.142;7.768;2023-11-19T08:22:12;13.40;99.90
5868;DHT22;2960;49.142;7.768;2023-11-19T08:24:39;13.40;99.90
5868;DHT22;2960;49.142;7.768;2023-11-19T08:27:06;13.40;99.90
5868;DHT22;2960;49.142;7.768;2023-11-19T08:29:33;13.50;99.90
5868;DHT22;2960;49.142;7.768;2023-11-19T08:32:02;13.50;99.90
5868;DHT22;2960;49.142;7.768;2023-11-19T08:34:30;13.50;99.90
5868;DHT22;2960;49.142;7.768;2023-11-19T08:36:57;13.60;99.90
5868;DHT22;2960;49.142;7.768;2023-11-19T08:39:24;13.60;99.80
5868;DHT22;2960;49.142;7.768;2023-11-19T08:41:51;13.70;99.60
5868;DHT22;2960;49.142;7.768;2023-11-19T08:44:18;13.70;99.40
5868;DHT22;2960;49.142;7.768;2023-11-19T08:46:48;13.70;99.20
5868;DHT22;2960;49.142;7.768;2023-11-19T08:49:17;13.70;99.00
5868;DHT22;2960;49.142;7.768;2023-11-19T08:51:44;13.70;98.90
5868;DHT22;2960;49.142;7.768;2023-11-19T08:54:12;13.70;98.80
5868;DHT22;2960;49.142;7.768;2023-11-19T08:56:39;13.70;99.10
5868;DHT22;2960;49.142;7.768;2023-11-19T08:59:06;13.70;98.70
5868;DHT22;2960;49.142;7.768;2023-11-19T09:01:34;13.80;98.60
5868;DHT22;2960;49.142;7.768;2023-11-19T09:04:01;13.80;98.50
5868;DHT22;2960;49.142;7.768;2023-11-19T09:06:34;13.80;98.50
5868;DHT22;2960;49.142;7.768;2023-11-19T09:09:02;13.80;98.40
5868;DHT22;2960;49.142;7.768;2023-11-19T09:11:31;13.80;98.10
5868;DHT22;2960;49.142;7.768;2023-11-19T09:13:58;13.80;98.00
5868;DHT22;2960;49.142;7.768;2023-11-19T09:16:26;13.80;98.00
5868;DHT22;2960;49.142;7.768;2023-11-19T09:18:53;13.90;98.00
5868;DHT22;2960;49.142;7.768;2023-11-19T09:21:28;13.90;97.90
5868;DHT22;2960;49.142;7.768;2023-11-19T09:24:01;13.90;97.90
5868;DHT22;2960;49.142;7.768;2023-11-19T09:26:28;13.90;97.80
5868;DHT22;2960;49.142;7.768;2023-11-19T09:28:56;14.00;97.70
5868;DHT22;2960;49.142;7.768;2023-11-19T09:31:23;14.00;97.50
5868;DHT22;2960;49.142;7.768;2023-11-19T09:33:50;14.00;97.20
5868;DHT22;2960;49.142;7.768;2023-11-19T09:36:17;14.00;97.20
5868;DHT22;2960;49.142;7.768;2023-11-19T09:38:46;14.00;97.20
5868;DHT22;2960;49.142;7.768;2023-11-19T09:41:14;14.00;97.10
5868;DHT22;2960;49.142;7.768;2023-11-19T09:43:42;14.10;97.10
5868;DHT22;2960;49.142;7.768;2023-11-19T09:46:11;14.10;96.90
5868;DHT22;2960;49.142;7.768;2023-11-19T09:48:40;14.10;96.80
5868;DHT22;2960;49.142;7.768;2023-11-19T09:51:08;14.20;97.00
5868;DHT22;2960;49.142;7.768;2023-11-19T09:53:36;14.20;96.20
5868;DHT22;2960;49.142;7.768;2023-11-19T09:56:04;14.20;96.20
5868;DHT22;2960;49.142;7.768;2023-11-19T09:58:35;14.20;95.70
5868;DHT22;2960;49.142;7.768;2023-11-19T10:01:03;14.30;95.70
5868;DHT22;2960;49.142;7.768;2023-11-19T10:03:34;14.30;95.60
5868;DHT22;2960;49.142;7.768;2023-11-19T10:06:04;14.30;95.20
5868;DHT22;2960;49.142;7.768;2023-11-19T10:08:33;14.40;95.60
5868;DHT22;2960;49.142;7.768;2023-11-19T10:11:03;14.50;95.40
5868;DHT22;2960;49.142;7.768;2023-11-19T10:13:30;14.60;95.10
5868;DHT22;2960;49.142;7.768;2023-11-19T10:16:04;14.60;94.40
5868;DHT22;2960;49.142;7.768;2023-11-19T10:18:34;14.70;94.30
5868;DHT22;2960;49.142;7.768;2023-11-19T10:21:04;14.70;94.30
5868;DHT22;2960;49.142;7.768;2023-11-19T10:23:48;14.80;94.40
5868;DHT22;2960;49.142;7.768;2023-11-19T10:26:17;15.00;94.10
5868;DHT22;2960;49.142;7.768;2023-11-19T10:28:46;15.10;94.00
5868;DHT22;2960;49.142;7.768;2023-11-19T10:31:16;15.40;94.30
5868;DHT22;2960;49.142;7.768;2023-11-19T10:33:44;15.70;93.00
5868;DHT22;2960;49.142;7.768;2023-11-19T10:36:11;15.90;92.10
5868;DHT22;2960;49.142;7.768;2023-11-19T10:38:39;16.00;91.20
5868;DHT22;2960;49.142;7.768;2023-11-19T10:41:07;16.20;90.90
5868;DHT22;2960;49.142;7.768;2023-11-19T10:43:43;16.40;90.20
5868;DHT22;2960;49.142;7.768;2023-11-19T10:46:12;16.70;88.70
5868;DHT22;2960;49.142;7.768;2023-11-19T10:48:41;16.90;88.30
5868;DHT22;2960;49.142;7.768;2023-11-19T10:51:08;17.10;88.40
5868;DHT22;2960;49.142;7.768;2023-11-19T10:53:41;17.40;85.90
5868;DHT22;2960;49.142;7.768;2023-11-19T10:56:11;17.60;84.00
5868;DHT22;2960;49.142;7.768;2023-11-19T10:58:44;17.60;82.20
5868;DHT22;2960;49.142;7.768;2023-11-19T11:01:18;17.60;81.30
5868;DHT22;2960;49.142;7.768;2023-11-19T11:03:51;17.50;81.20
5868;DHT22;2960;49.142;7.768;2023-11-19T11:06:23;17.70;82.30
5868;DHT22;2960;49.142;7.768;2023-11-19T11:08:51;17.90;82.80
5868;DHT22;2960;49.142;7.768;2023-11-19T11:11:19;18.30;82.70
5868;DHT22;2960;49.142;7.768;2023-11-19T11:13:50;18.50;80.70
5868;DHT22;2960;49.142;7.768;2023-11-19T11:16:20;18.50;79.30
5868;DHT22;2960;49.142;7.768;2023-11-19T11:18:52;18.60;77.60
5868;DHT22;2960;49.142;7.768;2023-11-19T11:21:22;18.60;76.40
5868;DHT22;2960;49.142;7.768;2023-11-19T11:24:11;18.50;76.40
5868;DHT22;2960;49.142;7.768;2023-11-19T11:27:16;18.50;76.20
5868;DHT22;2960;49.142;7.768;2023-11-19T11:30:10;18.40;75.30
5868;DHT22;2960;49.142;7.768;2023-11-19T11:32:53;18.30;75.20
5868;DHT22;2960;49.142;7.768;2023-11-19T11:35:31;18.30;74.70
5868;DHT22;2960;49.142;7.768;2023-11-19T11:38:06;18.30;74.40
5868;DHT22;2960;49.142;7.768;2023-11-19T11:40:34;18.40;74.20
5868;DHT22;2960;49.142;7.768;2023-11-19T11:43:01;18.40;73.70
5868;DHT22;2960;49.142;7.768;2023-11-19T11:45:37;18.40;72.70
5868;DHT22;2960;49.142;7.768;2023-11-19T11:48:12;18.40;72.20
5868;DHT22;2960;49.142;7.768;2023-11-19T11:50:52;18.30;71.50
5868;DHT22;2960;49.142;7.768;2023-11-19T11:53:22;18.20;70.80
5868;DHT22;2960;49.142;7.768;2023-11-19T11:55:56;18.30;70.90
5868;DHT22;2960;49.142;7.768;2023-11-19T11:58:27;18.30;70.70
5868;DHT22;2960;49.142;7.768;2023-11-19T12:01:03;18.50;70.60
5868;DHT22;2960;49.142;7.768;2023-11-19T12:03:36;18.60;70.00
5868;DHT22;2960;49.142;7.768;2023-11-19T12:06:06;18.90;69.90
5868;DHT22;2960;49.142;7.768;2023-11-19T12:08:34;19.20;69.60
5868;DHT22;2960;49.142;7.768;2023-11-19T12:11:02;19.50;68.90
5868;DHT22;2960;49.142;7.768;2023-11-19T12:13:47;19.80;68.50
5868;DHT22;2960;49.142;7.768;2023-11-19T12:16:25;20.30;67.70
5868;DHT22;2960;49.142;7.768;2023-11-19T12:18:54;20.60;67.30
5868;DHT22;2960;49.142;7.768;2023-11-19T12:21:31;20.80;66.50
5868;DHT22;2960;49.142;7.768;2023-11-19T12:24:00;20.80;65.60
5868;DHT22;2960;49.142;7.768;2023-11-19T12:26:37;20.70;64.70
5868;DHT22;2960;49.142;7.768;2023-11-19T12:29:05;20.50;64.70
5868;DHT22;2960;49.142;7.768;2023-11-19T12:31:33;20.20;63.30
5868;DHT22;2960;49.142;7.768;2023-11-19T12:34:08;19.90;63.40
5868;DHT22;2960;49.142;7.768;2023-11-19T12:36:40;19.60;63.70
5868;DHT22;2960;49.142;7.768;2023-11-19T12:39:10;19.40;64.10
5868;DHT22;2960;49.142;7.768;2023-11-19T12:41:51;19.30;64.50
5868;DHT22;2960;49.142;7.768;2023-11-19T12:44:18;19.10;64.50
5868;DHT22;2960;49.142;7.768;2023-11-19T12:46:45;18.90;64.20
5868;DHT22;2960;49.142;7.768;2023-11-19T12:49:12;18.80;64.40
5868;DHT22;2960;49.142;7.768;2023-11-19T12:51:41;18.80;64.50
5868;DHT22;2960;49.142;7.768;2023-11-19T12:54:08;18.80;64.50
5868;DHT22;2960;49.142;7.768;2023-11-19T12:56:35;18.80;63.90
5868;DHT22;2960;49.142;7.768;2023-11-19T12:59:10;18.90;63.70
5868;DHT22;2960;49.142;7.768;2023-11-19T13:01:39;19.00;63.60
5868;DHT22;2960;49.142;7.768;2023-11-19T13:04:27;19.20;63.60
5868;DHT22;2960;49.142;7.768;2023-11-19T13:06:57;19.60;63.40
5868;DHT22;2960;49.142;7.768;2023-11-19T13:09:25;19.90;62.90
5868;DHT22;2960;49.142;7.768;2023-11-19T13:11:53;20.10;62.60
5868;DHT22;2960;49.142;7.768;2023-11-19T13:14:21;20.30;62.20
5868;DHT22;2960;49.142;7.768;2023-11-19T13:16:49;20.50;61.30
5868;DHT22;2960;49.142;7.768;2023-11-19T13:19:16;20.60;61.30
5868;DHT22;2960;49.142;7.768;2023-11-19T13:21:45;20.60;61.10
5868;DHT22;2960;49.142;7.768;2023-11-19T13:24:15;20.60;60.80
5868;DHT22;2960;49.142;7.768;2023-11-19T13:26:42;20.50;59.50
5868;DHT22;2960;49.142;7.768;2023-11-19T13:29:09;20.40;59.40
5868;DHT22;2960;49.142;7.768;2023-11-19T13:31:37;20.30;59.00
5868;DHT22;2960;49.142;7.768;2023-11-19T13:34:04;20.10;58.60
5868;DHT22;2960;49.142;7.768;2023-11-19T13:36:33;19.90;58.40
5868;DHT22;2960;49.142;7.768;2023-11-19T13:39:00;19.70;58.80
5868;DHT22;2960;49.142;7.768;2023-11-19T13:41:29;19.60;58.50
5868;DHT22;2960;49.142;7.768;2023-11-19T13:43:56;19.40;58.70
5868;DHT22;2960;49.142;7.768;2023-11-19T13:46:24;19.40;59.00
5868;DHT22;2960;49.142;7.768;2023-11-19T13:48:51;19.20;58.90
5868;DHT22;2960;49.142;7.768;2023-11-19T13:51:18;19.20;58.80
5868;DHT22;2960;49.142;7.768;2023-11-19T13:53:45;19.20;58.60
5868;DHT22;2960;49.142;7.768;2023-11-19T13:56:15;19.10;57.90
5868;DHT22;2960;49.142;7.768;2023-11-19T13:58:47;19.00;57.60
5868;DHT22;2960;49.142;7.768;2023-11-19T14:01:18;19.00;57.90
5868;DHT22;2960;49.142;7.768;2023-11-19T14:03:45;19.00;57.90
5868;DHT22;2960;49.142;7.768;2023-11-19T14:06:13;18.90;57.20
5868;DHT22;2960;49.142;7.768;2023-11-19T14:08:40;18.80;57.40
5868;DHT22;2960;49.142;7.768;2023-11-19T14:11:07;18.70;57.30
5868;DHT22;2960;49.142;7.768;2023-11-19T14:13:34;18.60;57.50
5868;DHT22;2960;49.142;7.768;2023-11-19T14:16:03;18.50;57.50
5868;DHT22;2960;49.142;7.768;2023-11-19T14:18:34;18.40;57.50
5868;DHT22;2960;49.142;7.768;2023-11-19T14:21:01;18.40;57.40
5868;DHT22;2960;49.142;7.768;2023-11-19T14:23:29;18.40;57.40
5868;DHT22;2960;49.142;7.768;2023-11-19T14:25:57;18.40;57.50
5868;DHT22;2960;49.142;7.768;2023-11-19T14:28:24;18.40;57.60
5868;DHT22;2960;49.142;7.768;2023-11-19T14:30:52;18.30;57.70
5868;DHT22;2960;49.142;7.768;2023-11-19T14:33:23;18.30;57.80
5868;DHT22;2960;49.142;7.768;2023-11-19T14:35:50;18.30;57.80
5868;DHT22;2960;49.142;7.768;2023-11-19T14:38:18;18.20;57.80
5868;DHT22;2960;49.142;7.768;2023-11-19T14:40:45;18.10;57.80
5868;DHT22;2960;49.142;7.768;2023-11-19T14:43:13;18.00;58.00
5868;DHT22;2960;49.142;7.768;2023-11-19T14:45:41;18.00;58.10
5868;DHT22;2960;49.142;7.768;2023-11-19T14:48:08;18.00;58.80
5868;DHT22;2960;49.142;7.768;2023-11-19T14:50:37;18.00;58.30
5868;DHT22;2960;49.142;7.768;2023-11-19T14:53:04;18.00;58.30
5868;DHT22;2960;49.142;7.768;2023-11-19T14:55:32;17.90;58.20
5868;DHT22;2960;49.142;7.768;2023-11-19T14:57:59;17.90;58.30
5868;DHT22;2960;49.142;7.768;2023-11-19T15:00:26;17.80;58.10
5868;DHT22;2960;49.142;7.768;2023-11-19T15:02:53;17.80;58.30
5868;DHT22;2960;49.142;7.768;2023-11-19T15:05:21;17.70;58.40
5868;DHT22;2960;49.142;7.768;2023-11-19T15:07:50;17.60;58.50
5868;DHT22;2960;49.142;7.768;2023-11-19T15:10:19;17.50;58.50
5868;DHT22;2960;49.142;7.768;2023-11-19T15:12:46;17.50;58.70
5868;DHT22;2960;49.142;7.768;2023-11-19T15:15:13;17.40;58.90
5868;DHT22;2960;49.142;7.768;2023-11-19T15:17:40;17.30;59.00
5868;DHT22;2960;49.142;7.768;2023-11-19T15:20:08;17.30;59.10
5868;DHT22;2960;49.142;7.768;2023-11-19T15:22:38;17.20;59.20
5868;DHT22;2960;49.142;7.768;2023-11-19T15:25:08;17.10;59.30
5868;DHT22;2960;49.142;7.768;2023-11-19T15:27:35;17.00;59.40
5868;DHT22;2960;49.142;7.768;2023-11-19T15:30:03;16.90;59.50
5868;DHT22;2960;49.142;7.768;2023-11-19T15:32:31;16.80;59.70
5868;DHT22;2960;49.142;7.768;2023-11-19T15:34:58;16.70;59.80
5868;DHT22;2960;49.142;7.768;2023-11-19T15:37:25;16.60;60.00
5868;DHT22;2960;49.142;7.768;2023-11-19T15:39:52;16.50;60.10
5868;DHT22;2960;49.142;7.768;2023-11-19T15:42:21;16.50;60.30
5868;DHT22;2960;49.142;7.768;2023-11-19T15:44:48;16.40;60.30
5868;DHT22;2960;49.142;7.768;2023-11-19T15:47:15;16.30;60.30
5868;DHT22;2960;49.142;7.768;2023-11-19T15:49:45;16.20;60.30
5868;DHT22;2960;49.142;7.768;2023-11-19T15:52:14;16.20;60.50
5868;DHT22;2960;49.142;7.768;2023-11-19T15:54:41;16.10;60.40
5868;DHT22;2960;49.142;7.768;2023-11-19T15:57:08;16.00;60.60
5868;DHT22;2960;49.142;7.768;2023-11-19T15:59:36;16.00;60.80
5868;DHT22;2960;49.142;7.768;2023-11-19T16:02:04;16.00;60.90
5868;DHT22;2960;49.142;7.768;2023-11-19T16:04:31;15.90;60.90
5868;DHT22;2960;49.142;7.768;2023-11-19T16:06:58;15.90;61.80
5868;DHT22;2960;49.142;7.768;2023-11-19T16:09:25;15.80;61.00
5868;DHT22;2960;49.142;7.768;2023-11-19T16:11:53;15.80;61.10